createdAt,value
2016-08-23T00:00:06.965Z,1022.22
2016-08-23T00:00:16.963Z,1022.21
2016-08-23T00:00:26.957Z,1022.18
2016-08-23T00:00:36.952Z,1022.23
2016-08-23T00:00:46.948Z,1022.23
2016-08-23T00:00:56.941Z,1022.28
2016-08-23T00:01:06.938Z,1022.26
2016-08-23T00:01:16.932Z,1022.21
2016-08-23T00:01:26.928Z,1022.25
2016-08-23T00:01:36.926Z,1022.29
2016-08-23T00:01:46.918Z,1022.2
2016-08-23T00:01:56.911Z,1022.23
2016-08-23T00:02:06.907Z,1022.21
2016-08-23T00:02:16.902Z,1022.18
2016-08-23T00:02:26.903Z,1022.25
2016-08-23T00:02:36.894Z,1022.26
2016-08-23T00:02:46.888Z,1022.22
2016-08-23T00:02:56.885Z,1022.2
2016-08-23T00:03:06.877Z,1022.22
2016-08-23T00:03:16.875Z,1022.25
2016-08-23T00:03:26.867Z,1022.25
2016-08-23T00:03:36.863Z,1022.24
2016-08-23T00:03:46.861Z,1022.25
2016-08-23T00:03:56.856Z,1022.22
2016-08-23T00:04:06.854Z,1022.26
2016-08-23T00:04:17.573Z,1022.26
2016-08-23T00:04:27.565Z,1022.22
2016-08-23T00:04:36.831Z,1022.24
2016-08-23T00:04:46.829Z,1022.2
2016-08-23T00:04:56.825Z,1022.2
2016-08-23T00:05:06.820Z,1022.26
2016-08-23T00:05:16.815Z,1022.24
2016-08-23T00:05:26.809Z,1022.25
2016-08-23T00:05:36.805Z,1022.27
2016-08-23T00:05:46.798Z,1022.23
2016-08-23T00:05:56.796Z,1022.2
2016-08-23T00:06:06.791Z,1022.25
2016-08-23T00:06:16.787Z,1022.23
2016-08-23T00:06:26.783Z,1022.23
2016-08-23T00:06:36.778Z,1022.22
2016-08-23T00:06:46.774Z,1022.24
2016-08-23T00:06:56.771Z,1022.23
2016-08-23T00:07:06.761Z,1022.22
2016-08-23T00:07:16.757Z,1022.19
2016-08-23T00:07:26.750Z,1022.23
2016-08-23T00:07:36.746Z,1022.21
2016-08-23T00:07:46.743Z,1022.18
2016-08-23T00:07:56.736Z,1022.26
2016-08-23T00:08:06.731Z,1022.26
2016-08-23T00:08:16.728Z,1022.2
2016-08-23T00:08:26.723Z,1022.23
2016-08-23T00:08:36.717Z,1022.22
2016-08-23T00:08:46.719Z,1022.26
2016-08-23T00:08:56.715Z,1022.2
2016-08-23T00:09:06.704Z,1022.19
2016-08-23T00:09:16.699Z,1022.21
2016-08-23T00:09:26.694Z,1022.18
2016-08-23T00:09:36.692Z,1022.18
2016-08-23T00:09:46.685Z,1022.18
2016-08-23T00:09:56.695Z,1022.19
2016-08-23T00:10:06.677Z,1022.22
2016-08-23T00:10:17.400Z,1022.21
2016-08-23T00:10:26.664Z,1022.22
2016-08-23T00:10:36.658Z,1022.22
2016-08-23T00:10:46.652Z,1022.25
2016-08-23T00:10:56.650Z,1022.24
2016-08-23T00:11:06.645Z,1022.21
2016-08-23T00:11:16.638Z,1022.22
2016-08-23T00:11:26.636Z,1022.19
2016-08-23T00:11:36.633Z,1022.24
2016-08-23T00:11:46.640Z,1022.22
2016-08-23T00:11:56.620Z,1022.21
2016-08-23T00:12:06.617Z,1022.22
2016-08-23T00:12:16.612Z,1022.13
2016-08-23T00:12:26.613Z,1022.24
2016-08-23T00:12:36.603Z,1022.21
2016-08-23T00:12:46.599Z,1022.19
2016-08-23T00:12:56.594Z,1022.22
2016-08-23T00:13:06.589Z,1022.24
2016-08-23T00:13:16.586Z,1022.19
2016-08-23T00:13:26.588Z,1022.24
2016-08-23T00:13:36.573Z,1022.2
2016-08-23T00:13:46.566Z,1022.21
2016-08-23T00:13:56.564Z,1022.22
2016-08-23T00:14:06.557Z,1022.26
2016-08-23T00:14:16.551Z,1022.23
2016-08-23T00:14:26.550Z,1022.19
2016-08-23T00:14:36.544Z,1022.21
2016-08-23T00:14:46.538Z,1022.21
2016-08-23T00:14:56.534Z,1022.17
2016-08-23T00:15:06.539Z,1022.25
2016-08-23T00:15:16.524Z,1022.26
2016-08-23T00:15:26.518Z,1022.19
2016-08-23T00:15:36.515Z,1022.19
2016-08-23T00:15:46.515Z,1022.23
2016-08-23T00:15:56.505Z,1022.22
2016-08-23T00:16:06.501Z,1022.24
2016-08-23T00:16:16.502Z,1022.17
2016-08-23T00:16:26.496Z,1022.19
2016-08-23T00:16:36.488Z,1022.19
2016-08-23T00:16:46.478Z,1022.22
2016-08-23T00:16:56.475Z,1022.21
2016-08-23T00:17:06.471Z,1022.22
2016-08-23T00:17:16.469Z,1022.2
2016-08-23T00:17:26.468Z,1022.19
2016-08-23T00:17:36.458Z,1022.22
2016-08-23T00:17:46.452Z,1022.22
2016-08-23T00:17:56.446Z,1022.25
2016-08-23T00:18:06.442Z,1022.22
2016-08-23T00:18:16.438Z,1022.25
2016-08-23T00:18:26.433Z,1022.22
2016-08-23T00:18:37.156Z,1022.22
2016-08-23T00:18:46.423Z,1022.24
2016-08-23T00:18:56.419Z,1022.24
2016-08-23T00:19:06.416Z,1022.22
2016-08-23T00:19:16.409Z,1022.21
2016-08-23T00:19:26.414Z,1022.23
2016-08-23T00:19:36.399Z,1022.2
2016-08-23T00:19:46.397Z,1022.24
2016-08-23T00:19:56.389Z,1022.21
2016-08-23T00:20:06.386Z,1022.25
2016-08-23T00:20:16.382Z,1022.22
2016-08-23T00:20:26.376Z,1022.21
2016-08-23T00:20:36.370Z,1022.23
2016-08-23T00:20:46.367Z,1022.18
2016-08-23T00:20:56.364Z,1022.21
2016-08-23T00:21:06.354Z,1022.18
2016-08-23T00:21:16.349Z,1022.26
2016-08-23T00:21:26.345Z,1022.2
2016-08-23T00:21:36.339Z,1022.22
2016-08-23T00:21:46.334Z,1022.22
2016-08-23T00:21:56.330Z,1022.18
2016-08-23T00:22:06.326Z,1022.23
2016-08-23T00:22:16.323Z,1022.23
2016-08-23T00:22:26.316Z,1022.19
2016-08-23T00:22:36.313Z,1022.21
2016-08-23T00:22:46.307Z,1022.21
2016-08-23T00:22:56.303Z,1022.17
2016-08-23T00:23:06.297Z,1022.24
2016-08-23T00:23:16.298Z,1022.2
2016-08-23T00:23:26.286Z,1022.18
2016-08-23T00:23:36.284Z,1022.25
2016-08-23T00:23:46.278Z,1022.25
2016-08-23T00:23:56.273Z,1022.26
2016-08-23T00:24:06.267Z,1022.22
2016-08-23T00:24:16.263Z,1022.24
2016-08-23T00:24:26.258Z,1022.26
2016-08-23T00:24:36.253Z,1022.21
2016-08-23T00:24:46.248Z,1022.25
2016-08-23T00:24:56.243Z,1022.2
2016-08-23T00:25:06.239Z,1022.22
2016-08-23T00:25:16.233Z,1022.25
2016-08-23T00:25:26.230Z,1022.21
2016-08-23T00:25:36.228Z,1022.21
2016-08-23T00:25:46.221Z,1022.23
2016-08-23T00:25:56.216Z,1022.2
2016-08-23T00:26:06.209Z,1022.21
2016-08-23T00:26:16.209Z,1022.25
2016-08-23T00:26:26.199Z,1022.23
2016-08-23T00:26:36.195Z,1022.26
2016-08-23T00:26:46.191Z,1022.22
2016-08-23T00:26:56.187Z,1022.24
2016-08-23T00:27:06.182Z,1022.24
2016-08-23T00:27:16.177Z,1022.2
2016-08-23T00:27:26.171Z,1022.24
2016-08-23T00:27:36.165Z,1022.26
2016-08-23T00:27:46.161Z,1022.22
2016-08-23T00:27:56.157Z,1022.24
2016-08-23T00:28:06.152Z,1022.23
2016-08-23T00:28:16.148Z,1022.26
2016-08-23T00:28:26.142Z,1022.27
2016-08-23T00:28:36.137Z,1022.23
2016-08-23T00:28:46.131Z,1022.26
2016-08-23T00:28:56.128Z,1022.24
2016-08-23T00:29:06.123Z,1022.25
2016-08-23T00:29:16.119Z,1022.27
2016-08-23T00:29:26.119Z,1022.26
2016-08-23T00:29:36.119Z,1022.25
2016-08-23T00:29:46.108Z,1022.25
2016-08-23T00:29:56.107Z,1022.27
2016-08-23T00:30:06.095Z,1022.29
2016-08-23T00:30:16.088Z,1022.25
2016-08-23T00:30:26.084Z,1022.28
2016-08-23T00:30:36.077Z,1022.29
2016-08-23T00:30:46.079Z,1022.3
2016-08-23T00:30:56.067Z,1022.27
2016-08-23T00:31:06.063Z,1022.29
2016-08-23T00:31:16.058Z,1022.27
2016-08-23T00:31:26.053Z,1022.25
2016-08-23T00:31:36.050Z,1022.27
2016-08-23T00:31:46.051Z,1022.3
2016-08-23T00:31:56.039Z,1022.28
2016-08-23T00:32:06.036Z,1022.24
2016-08-23T00:32:16.029Z,1022.22
2016-08-23T00:32:26.027Z,1022.23
2016-08-23T00:32:36.022Z,1022.25
2016-08-23T00:32:46.014Z,1022.22
2016-08-23T00:32:56.019Z,1022.29
2016-08-23T00:33:06.007Z,1022.24
2016-08-23T00:33:16.017Z,1022.25
2016-08-23T00:33:25.995Z,1022.22
2016-08-23T00:33:35.992Z,1022.25
2016-08-23T00:33:45.985Z,1022.21
2016-08-23T00:33:55.981Z,1022.22
2016-08-23T00:34:05.976Z,1022.21
2016-08-23T00:34:15.972Z,1022.21
2016-08-23T00:34:25.968Z,1022.24
2016-08-23T00:34:35.963Z,1022.21
2016-08-23T00:34:45.956Z,1022.21
2016-08-23T00:34:55.953Z,1022.24
2016-08-23T00:35:05.948Z,1022.21
2016-08-23T00:35:15.942Z,1022.26
2016-08-23T00:35:25.938Z,1022.21
2016-08-23T00:35:35.932Z,1022.2
2016-08-23T00:35:45.930Z,1022.2
2016-08-23T00:35:55.925Z,1022.18
2016-08-23T00:36:05.919Z,1022.23
2016-08-23T00:36:15.913Z,1022.21
2016-08-23T00:36:25.917Z,1022.21
2016-08-23T00:36:35.904Z,1022.24
2016-08-23T00:36:45.905Z,1022.21
2016-08-23T00:36:55.893Z,1022.21
2016-08-23T00:37:05.891Z,1022.18
2016-08-23T00:37:15.883Z,1022.21
2016-08-23T00:37:25.879Z,1022.21
2016-08-23T00:37:35.874Z,1022.2
2016-08-23T00:37:45.870Z,1022.2
2016-08-23T00:37:55.864Z,1022.22
2016-08-23T00:38:05.862Z,1022.18
2016-08-23T00:38:15.859Z,1022.2
2016-08-23T00:38:25.854Z,1022.15
2016-08-23T00:38:35.846Z,1022.16
2016-08-23T00:38:45.842Z,1022.23
2016-08-23T00:38:55.838Z,1022.16
2016-08-23T00:39:05.833Z,1022.2
2016-08-23T00:39:15.829Z,1022.17
2016-08-23T00:39:25.822Z,1022.19
2016-08-23T00:39:35.825Z,1022.19
2016-08-23T00:39:45.811Z,1022.19
2016-08-23T00:39:55.806Z,1022.21
2016-08-23T00:40:05.802Z,1022.18
2016-08-23T00:40:15.797Z,1022.19
2016-08-23T00:40:25.793Z,1022.23
2016-08-23T00:40:35.787Z,1022.19
2016-08-23T00:40:45.782Z,1022.17
2016-08-23T00:40:55.778Z,1022.15
2016-08-23T00:41:05.774Z,1022.15
2016-08-23T00:41:15.769Z,1022.19
2016-08-23T00:41:25.764Z,1022.1
2016-08-23T00:41:35.759Z,1022.12
2016-08-23T00:41:45.754Z,1022.11
2016-08-23T00:41:55.751Z,1022.12
2016-08-23T00:42:05.744Z,1022.12
2016-08-23T00:42:15.741Z,1022.11
2016-08-23T00:42:25.736Z,1022.15
2016-08-23T00:42:35.729Z,1022.16
2016-08-23T00:42:45.726Z,1022.14
2016-08-23T00:42:55.718Z,1022.14
2016-08-23T00:43:05.714Z,1022.14
2016-08-23T00:43:15.711Z,1022.15
2016-08-23T00:43:25.704Z,1022.11
2016-08-23T00:43:35.699Z,1022.13
2016-08-23T00:43:45.697Z,1022.11
2016-08-23T00:43:55.689Z,1022.11
2016-08-23T00:44:05.684Z,1022.16
2016-08-23T00:44:15.679Z,1022.14
2016-08-23T00:44:25.675Z,1022.12
2016-08-23T00:44:35.672Z,1022.12
2016-08-23T00:44:45.666Z,1022.12
2016-08-23T00:44:55.662Z,1022.14
2016-08-23T00:45:05.656Z,1022.09
2016-08-23T00:45:15.652Z,1022.16
2016-08-23T00:45:25.650Z,1022.15
2016-08-23T00:45:35.645Z,1022.1
2016-08-23T00:45:45.638Z,1022.09
2016-08-23T00:45:55.631Z,1022.15
2016-08-23T00:46:05.626Z,1022.12
2016-08-23T00:46:15.624Z,1022.11
2016-08-23T00:46:25.618Z,1022.13
2016-08-23T00:46:35.611Z,1022.08
2016-08-23T00:46:45.606Z,1022.17
2016-08-23T00:46:55.604Z,1022.12
2016-08-23T00:47:05.595Z,1022.14
2016-08-23T00:47:15.594Z,1022.14
2016-08-23T00:47:25.589Z,1022.12
2016-08-23T00:47:35.582Z,1022.12
2016-08-23T00:47:45.578Z,1022.14
2016-08-23T00:47:55.574Z,1022.13
2016-08-23T00:48:05.570Z,1022.14
2016-08-23T00:48:15.565Z,1022.13
2016-08-23T00:48:25.563Z,1022.08
2016-08-23T00:48:35.555Z,1022.15
2016-08-23T00:48:45.551Z,1022.12
2016-08-23T00:48:55.545Z,1022.1
2016-08-23T00:49:05.543Z,1022.14
2016-08-23T00:49:15.535Z,1022.13
2016-08-23T00:49:25.532Z,1022.09
2016-08-23T00:49:35.525Z,1022.11
2016-08-23T00:49:45.522Z,1022.11
2016-08-23T00:49:55.518Z,1022.12
2016-08-23T00:50:05.511Z,1022.11
2016-08-23T00:50:15.513Z,1022.07
2016-08-23T00:50:25.501Z,1022.07
2016-08-23T00:50:35.495Z,1022.12
2016-08-23T00:50:45.491Z,1022.1
2016-08-23T00:50:55.488Z,1022.09
2016-08-23T00:51:05.483Z,1022.1
2016-08-23T00:51:15.477Z,1022.14
2016-08-23T00:51:25.473Z,1022.11
2016-08-23T00:51:35.469Z,1022.14
2016-08-23T00:51:45.464Z,1022.14
2016-08-23T00:51:55.459Z,1022.11
2016-08-23T00:52:05.454Z,1022.14
2016-08-23T00:52:15.449Z,1022.12
2016-08-23T00:52:25.443Z,1022.12
2016-08-23T00:52:35.439Z,1022.1
2016-08-23T00:52:45.432Z,1022.1
2016-08-23T00:52:55.430Z,1022.13
2016-08-23T00:53:05.425Z,1022.13
2016-08-23T00:53:15.418Z,1022.12
2016-08-23T00:53:25.419Z,1022.1
2016-08-23T00:53:35.409Z,1022.14
2016-08-23T00:53:45.402Z,1022.18
2016-08-23T00:53:55.398Z,1022.12
2016-08-23T00:54:05.393Z,1022.15
2016-08-23T00:54:15.389Z,1022.13
2016-08-23T00:54:25.387Z,1022.14
2016-08-23T00:54:35.381Z,1022.15
2016-08-23T00:54:45.376Z,1022.14
2016-08-23T00:54:55.371Z,1022.16
2016-08-23T00:55:06.096Z,1022.1
2016-08-23T00:55:15.360Z,1022.13
2016-08-23T00:55:25.356Z,1022.12
2016-08-23T00:55:35.351Z,1022.11
2016-08-23T00:55:45.348Z,1022.14
2016-08-23T00:55:55.341Z,1022.14
2016-08-23T00:56:05.338Z,1022.13
2016-08-23T00:56:15.333Z,1022.18
2016-08-23T00:56:25.327Z,1022.14
2016-08-23T00:56:35.322Z,1022.13
2016-08-23T00:56:45.315Z,1022.1
2016-08-23T00:56:55.311Z,1022.13
2016-08-23T00:57:05.308Z,1022.13
2016-08-23T00:57:15.303Z,1022.15
2016-08-23T00:57:25.297Z,1022.14
2016-08-23T00:57:35.295Z,1022.09
2016-08-23T00:57:45.289Z,1022.18
2016-08-23T00:57:55.282Z,1022.13
2016-08-23T00:58:05.277Z,1022.17
2016-08-23T00:58:15.274Z,1022.18
2016-08-23T00:58:25.270Z,1022.17
2016-08-23T00:58:35.265Z,1022.14
2016-08-23T00:58:45.260Z,1022.16
2016-08-23T00:58:55.256Z,1022.2
2016-08-23T00:59:05.248Z,1022.22
2016-08-23T00:59:15.242Z,1022.19
2016-08-23T00:59:25.238Z,1022.19
2016-08-23T00:59:35.238Z,1022.2
2016-08-23T00:59:45.230Z,1022.17
2016-08-23T00:59:55.223Z,1022.17
2016-08-23T01:00:05.218Z,1022.14
2016-08-23T01:00:15.218Z,1022.18
2016-08-23T01:00:25.210Z,1022.19
2016-08-23T01:00:35.206Z,1022.18
2016-08-23T01:00:45.199Z,1022.16
2016-08-23T01:00:55.196Z,1022.16
2016-08-23T01:01:05.193Z,1022.1
2016-08-23T01:01:15.188Z,1022.14
2016-08-23T01:01:25.181Z,1022.19
2016-08-23T01:01:35.178Z,1022.18
2016-08-23T01:01:45.171Z,1022.13
2016-08-23T01:01:55.168Z,1022.18
2016-08-23T01:02:05.163Z,1022.16
2016-08-23T01:02:15.156Z,1022.13
2016-08-23T01:02:25.154Z,1022.19
2016-08-23T01:02:35.149Z,1022.19
2016-08-23T01:02:45.874Z,1022.19
2016-08-23T01:02:55.137Z,1022.17
2016-08-23T01:03:05.132Z,1022.14
2016-08-23T01:03:15.128Z,1022.14
2016-08-23T01:03:25.124Z,1022.15
2016-08-23T01:03:35.118Z,1022.14
2016-08-23T01:03:45.115Z,1022.13
2016-08-23T01:03:55.109Z,1022.12
2016-08-23T01:04:05.104Z,1022.19
2016-08-23T01:04:15.098Z,1022.16
2016-08-23T01:04:25.104Z,1022.13
2016-08-23T01:04:35.089Z,1022.09
2016-08-23T01:04:45.083Z,1022.09
2016-08-23T01:04:55.084Z,1022.15
2016-08-23T01:05:05.075Z,1022.12
2016-08-23T01:05:15.072Z,1022.11
2016-08-23T01:05:25.065Z,1022.13
2016-08-23T01:05:35.060Z,1022.11
2016-08-23T01:05:45.056Z,1022.12
2016-08-23T01:05:55.051Z,1022.14
2016-08-23T01:06:05.045Z,1022.15
2016-08-23T01:06:15.039Z,1022.14
2016-08-23T01:06:25.039Z,1022.13
2016-08-23T01:06:35.029Z,1022.11
2016-08-23T01:06:45.026Z,1022.1
2016-08-23T01:06:55.022Z,1022.05
2016-08-23T01:07:05.016Z,1022.08
2016-08-23T01:07:15.018Z,1022.12
2016-08-23T01:07:25.005Z,1022.11
2016-08-23T01:07:35.000Z,1022.1
2016-08-23T01:07:44.996Z,1022.14
2016-08-23T01:07:54.991Z,1022.09
2016-08-23T01:08:04.988Z,1022.11
2016-08-23T01:08:14.983Z,1022.08
2016-08-23T01:08:24.979Z,1022.08
2016-08-23T01:08:34.978Z,1022.12
2016-08-23T01:08:44.977Z,1022.13
2016-08-23T01:08:54.965Z,1022.11
2016-08-23T01:09:04.960Z,1022.12
2016-08-23T01:09:14.953Z,1022.12
2016-08-23T01:09:24.950Z,1022.14
2016-08-23T01:09:34.945Z,1022.17
2016-08-23T01:09:44.938Z,1022.15
2016-08-23T01:09:54.938Z,1022.18
2016-08-23T01:10:04.930Z,1022.15
2016-08-23T01:10:14.925Z,1022.13
2016-08-23T01:10:24.924Z,1022.16
2016-08-23T01:10:34.918Z,1022.15
2016-08-23T01:10:44.908Z,1022.15
2016-08-23T01:10:54.907Z,1022.18
2016-08-23T01:11:04.907Z,1022.16
2016-08-23T01:11:14.896Z,1022.15
2016-08-23T01:11:24.892Z,1022.16
2016-08-23T01:11:34.886Z,1022.13
2016-08-23T01:11:44.883Z,1022.15
2016-08-23T01:11:54.876Z,1022.16
2016-08-23T01:12:04.871Z,1022.16
2016-08-23T01:12:14.868Z,1022.13
2016-08-23T01:12:24.862Z,1022.18
2016-08-23T01:12:34.856Z,1022.15
2016-08-23T01:12:44.850Z,1022.18
2016-08-23T01:12:54.851Z,1022.13
2016-08-23T01:13:04.843Z,1022.12
2016-08-23T01:13:14.836Z,1022.13
2016-08-23T01:13:24.832Z,1022.15
2016-08-23T01:13:34.827Z,1022.12
2016-08-23T01:13:44.822Z,1022.13
2016-08-23T01:13:54.819Z,1022.17
2016-08-23T01:14:04.814Z,1022.14
2016-08-23T01:14:14.810Z,1022.13
2016-08-23T01:14:24.806Z,1022.19
2016-08-23T01:14:34.801Z,1022.14
2016-08-23T01:14:44.794Z,1022.16
2016-08-23T01:14:54.790Z,1022.2
2016-08-23T01:15:04.784Z,1022.16
2016-08-23T01:15:14.780Z,1022.16
2016-08-23T01:15:24.775Z,1022.14
2016-08-23T01:15:34.769Z,1022.15
2016-08-23T01:15:44.766Z,1022.15
2016-08-23T01:15:54.760Z,1022.14
2016-08-23T01:16:04.754Z,1022.14
2016-08-23T01:16:14.750Z,1022.17
2016-08-23T01:16:24.746Z,1022.17
2016-08-23T01:16:34.739Z,1022.16
2016-08-23T01:16:44.735Z,1022.16
2016-08-23T01:16:54.730Z,1022.16
2016-08-23T01:17:04.728Z,1022.15
2016-08-23T01:17:14.722Z,1022.13
2016-08-23T01:17:24.718Z,1022.15
2016-08-23T01:17:34.713Z,1022.16
2016-08-23T01:17:44.708Z,1022.16
2016-08-23T01:17:54.703Z,1022.11
2016-08-23T01:18:04.698Z,1022.14
2016-08-23T01:18:14.697Z,1022.15
2016-08-23T01:18:24.689Z,1022.11
2016-08-23T01:18:34.683Z,1022.15
2016-08-23T01:18:44.679Z,1022.17
2016-08-23T01:18:54.671Z,1022.19
2016-08-23T01:19:04.668Z,1022.17
2016-08-23T01:19:14.665Z,1022.14
2016-08-23T01:19:24.658Z,1022.21
2016-08-23T01:19:34.655Z,1022.18
2016-08-23T01:19:44.648Z,1022.15
2016-08-23T01:19:54.646Z,1022.17
2016-08-23T01:20:04.639Z,1022.16
2016-08-23T01:20:14.635Z,1022.14
2016-08-23T01:20:24.631Z,1022.14
2016-08-23T01:20:34.624Z,1022.1
2016-08-23T01:20:44.621Z,1022.15
2016-08-23T01:20:54.616Z,1022.18
2016-08-23T01:21:04.611Z,1022.19
2016-08-23T01:21:14.607Z,1022.2
2016-08-23T01:21:24.600Z,1022.19
2016-08-23T01:21:34.598Z,1022.19
2016-08-23T01:21:44.591Z,1022.17
2016-08-23T01:21:54.587Z,1022.21
2016-08-23T01:22:04.582Z,1022.21
2016-08-23T01:22:14.576Z,1022.17
2016-08-23T01:22:24.571Z,1022.2
2016-08-23T01:22:34.573Z,1022.2
2016-08-23T01:22:44.562Z,1022.19
2016-08-23T01:22:54.556Z,1022.21
2016-08-23T01:23:04.550Z,1022.17
2016-08-23T01:23:14.548Z,1022.17
2016-08-23T01:23:24.543Z,1022.2
2016-08-23T01:23:34.538Z,1022.2
2016-08-23T01:23:44.536Z,1022.17
2016-08-23T01:23:54.530Z,1022.22
2016-08-23T01:24:04.523Z,1022.2
2016-08-23T01:24:14.520Z,1022.18
2016-08-23T01:24:24.515Z,1022.2
2016-08-23T01:24:34.512Z,1022.2
2016-08-23T01:24:44.503Z,1022.18
2016-08-23T01:24:54.505Z,1022.17
2016-08-23T01:25:04.497Z,1022.17
2016-08-23T01:25:14.488Z,1022.18
2016-08-23T01:25:24.484Z,1022.16
2016-08-23T01:25:34.479Z,1022.18
2016-08-23T01:25:44.476Z,1022.24
2016-08-23T01:25:54.470Z,1022.21
2016-08-23T01:26:04.463Z,1022.22
2016-08-23T01:26:14.460Z,1022.2
2016-08-23T01:26:25.193Z,1022.21
2016-08-23T01:26:34.450Z,1022.23
2016-08-23T01:26:44.446Z,1022.23
2016-08-23T01:26:54.443Z,1022.2
2016-08-23T01:27:04.437Z,1022.24
2016-08-23T01:27:14.432Z,1022.25
2016-08-23T01:27:25.157Z,1022.24
2016-08-23T01:27:34.422Z,1022.23
2016-08-23T01:27:44.421Z,1022.23
2016-08-23T01:27:54.414Z,1022.25
2016-08-23T01:28:04.409Z,1022.25
2016-08-23T01:28:14.404Z,1022.27
2016-08-23T01:28:24.397Z,1022.24
2016-08-23T01:28:34.391Z,1022.25
2016-08-23T01:28:44.388Z,1022.24
2016-08-23T01:28:54.381Z,1022.23
2016-08-23T01:29:04.379Z,1022.25
2016-08-23T01:29:14.374Z,1022.21
2016-08-23T01:29:24.368Z,1022.22
2016-08-23T01:29:34.363Z,1022.23
2016-08-23T01:29:44.359Z,1022.22
2016-08-23T01:29:54.355Z,1022.25
2016-08-23T01:30:04.351Z,1022.23
2016-08-23T01:30:14.343Z,1022.19
2016-08-23T01:30:24.339Z,1022.22
2016-08-23T01:30:34.335Z,1022.21
2016-08-23T01:30:44.332Z,1022.22
2016-08-23T01:30:54.326Z,1022.21
2016-08-23T01:31:04.321Z,1022.23
2016-08-23T01:31:14.315Z,1022.25
2016-08-23T01:31:24.311Z,1022.23
2016-08-23T01:31:34.307Z,1022.23
2016-08-23T01:31:44.303Z,1022.28
2016-08-23T01:31:54.303Z,1022.2
2016-08-23T01:32:04.291Z,1022.2
2016-08-23T01:32:14.285Z,1022.18
2016-08-23T01:32:24.284Z,1022.18
2016-08-23T01:32:34.283Z,1022.18
2016-08-23T01:32:44.271Z,1022.19
2016-08-23T01:32:54.266Z,1022.22
2016-08-23T01:33:04.262Z,1022.21
2016-08-23T01:33:14.258Z,1022.2
2016-08-23T01:33:24.266Z,1022.22
2016-08-23T01:33:34.247Z,1022.16
2016-08-23T01:33:44.243Z,1022.19
2016-08-23T01:33:54.245Z,1022.22
2016-08-23T01:34:04.234Z,1022.21
2016-08-23T01:34:14.229Z,1022.19
2016-08-23T01:34:24.227Z,1022.17
2016-08-23T01:34:34.220Z,1022.24
2016-08-23T01:34:44.222Z,1022.22
2016-08-23T01:34:54.211Z,1022.23
2016-08-23T01:35:04.203Z,1022.23
2016-08-23T01:35:14.207Z,1022.21
2016-08-23T01:35:24.195Z,1022.21
2016-08-23T01:35:34.191Z,1022.2
2016-08-23T01:35:44.186Z,1022.21
2016-08-23T01:35:54.179Z,1022.17
2016-08-23T01:36:04.177Z,1022.22
2016-08-23T01:36:14.171Z,1022.18
2016-08-23T01:36:24.171Z,1022.19
2016-08-23T01:36:34.161Z,1022.22
2016-08-23T01:36:44.155Z,1022.23
2016-08-23T01:36:54.152Z,1022.16
2016-08-23T01:37:04.145Z,1022.21
2016-08-23T01:37:14.142Z,1022.21
2016-08-23T01:37:24.139Z,1022.21
2016-08-23T01:37:34.135Z,1022.23
2016-08-23T01:37:44.136Z,1022.24
2016-08-23T01:37:54.122Z,1022.2
2016-08-23T01:38:04.117Z,1022.22
2016-08-23T01:38:14.116Z,1022.21
2016-08-23T01:38:24.107Z,1022.21
2016-08-23T01:38:34.101Z,1022.2
2016-08-23T01:38:44.097Z,1022.24
2016-08-23T01:38:54.824Z,1022.23
2016-08-23T01:39:04.089Z,1022.22
2016-08-23T01:39:14.085Z,1022.23
2016-08-23T01:39:24.078Z,1022.24
2016-08-23T01:39:34.073Z,1022.21
2016-08-23T01:39:44.070Z,1022.19
2016-08-23T01:39:54.065Z,1022.18
2016-08-23T01:40:04.060Z,1022.2
2016-08-23T01:40:14.055Z,1022.2
2016-08-23T01:40:24.050Z,1022.21
2016-08-23T01:40:34.045Z,1022.17
2016-08-23T01:40:44.041Z,1022.18
2016-08-23T01:40:54.036Z,1022.2
2016-08-23T01:41:04.030Z,1022.2
2016-08-23T01:41:14.755Z,1022.19
2016-08-23T01:41:24.022Z,1022.19
2016-08-23T01:41:34.016Z,1022.2
2016-08-23T01:41:44.010Z,1022.25
2016-08-23T01:41:54.005Z,1022.21
2016-08-23T01:42:04.002Z,1022.21
2016-08-23T01:42:13.999Z,1022.24
2016-08-23T01:42:23.993Z,1022.25
2016-08-23T01:42:33.987Z,1022.2
2016-08-23T01:42:43.982Z,1022.22
2016-08-23T01:42:53.976Z,1022.24
2016-08-23T01:43:03.974Z,1022.22
2016-08-23T01:43:13.970Z,1022.18
2016-08-23T01:43:23.963Z,1022.22
2016-08-23T01:43:33.961Z,1022.27
2016-08-23T01:43:43.967Z,1022.21
2016-08-23T01:43:53.949Z,1022.21
2016-08-23T01:44:03.945Z,1022.22
2016-08-23T01:44:13.938Z,1022.21
2016-08-23T01:44:23.935Z,1022.25
2016-08-23T01:44:33.931Z,1022.21
2016-08-23T01:44:43.926Z,1022.19
2016-08-23T01:44:53.922Z,1022.23
2016-08-23T01:45:03.915Z,1022.21
2016-08-23T01:45:13.911Z,1022.26
2016-08-23T01:45:23.904Z,1022.21
2016-08-23T01:45:33.901Z,1022.21
2016-08-23T01:45:43.895Z,1022.21
2016-08-23T01:45:53.890Z,1022.2
2016-08-23T01:46:03.885Z,1022.16
2016-08-23T01:46:13.880Z,1022.26
2016-08-23T01:46:23.875Z,1022.2
2016-08-23T01:46:33.871Z,1022.2
2016-08-23T01:46:43.864Z,1022.25
2016-08-23T01:46:53.864Z,1022.2
2016-08-23T01:47:03.858Z,1022.2
2016-08-23T01:47:13.855Z,1022.21
2016-08-23T01:47:23.847Z,1022.14
2016-08-23T01:47:33.842Z,1022.19
2016-08-23T01:47:43.840Z,1022.18
2016-08-23T01:47:53.839Z,1022.18
2016-08-23T01:48:03.830Z,1022.21
2016-08-23T01:48:13.823Z,1022.17
2016-08-23T01:48:23.817Z,1022.18
2016-08-23T01:48:33.811Z,1022.17
2016-08-23T01:48:43.808Z,1022.19
2016-08-23T01:48:53.803Z,1022.18
2016-08-23T01:49:03.800Z,1022.19
2016-08-23T01:49:13.792Z,1022.16
2016-08-23T01:49:23.788Z,1022.18
2016-08-23T01:49:33.784Z,1022.21
2016-08-23T01:49:43.779Z,1022.22
2016-08-23T01:49:53.777Z,1022.21
2016-08-23T01:50:03.774Z,1022.2
2016-08-23T01:50:13.768Z,1022.16
2016-08-23T01:50:23.760Z,1022.13
2016-08-23T01:50:33.758Z,1022.16
2016-08-23T01:50:43.749Z,1022.22
2016-08-23T01:50:53.748Z,1022.2
2016-08-23T01:51:03.741Z,1022.16
2016-08-23T01:51:13.739Z,1022.15
2016-08-23T01:51:23.732Z,1022.18
2016-08-23T01:51:33.727Z,1022.19
2016-08-23T01:51:43.724Z,1022.17
2016-08-23T01:51:53.716Z,1022.15
2016-08-23T01:52:03.712Z,1022.21
2016-08-23T01:52:13.707Z,1022.2
2016-08-23T01:52:23.701Z,1022.18
2016-08-23T01:52:33.697Z,1022.18
2016-08-23T01:52:43.692Z,1022.13
2016-08-23T01:52:53.688Z,1022.14
2016-08-23T01:53:03.684Z,1022.16
2016-08-23T01:53:13.679Z,1022.2
2016-08-23T01:53:23.676Z,1022.11
2016-08-23T01:53:33.671Z,1022.17
2016-08-23T01:53:43.663Z,1022.17
2016-08-23T01:53:54.401Z,1022.13
2016-08-23T01:54:03.653Z,1022.19
2016-08-23T01:54:13.650Z,1022.19
2016-08-23T01:54:23.647Z,1022.16
2016-08-23T01:54:33.641Z,1022.17
2016-08-23T01:54:43.639Z,1022.18
2016-08-23T01:54:54.364Z,1022.18
2016-08-23T01:55:03.625Z,1022.18
2016-08-23T01:55:13.617Z,1022.14
2016-08-23T01:55:23.615Z,1022.14
2016-08-23T01:55:33.608Z,1022.18
2016-08-23T01:55:43.604Z,1022.16
2016-08-23T01:55:53.604Z,1022.12
2016-08-23T01:56:03.595Z,1022.13
2016-08-23T01:56:13.595Z,1022.17
2016-08-23T01:56:23.587Z,1022.14
2016-08-23T01:56:33.581Z,1022.15
2016-08-23T01:56:43.577Z,1022.12
2016-08-23T01:56:53.574Z,1022.12
2016-08-23T01:57:03.570Z,1022.16
2016-08-23T01:57:13.563Z,1022.16
2016-08-23T01:57:23.565Z,1022.16
2016-08-23T01:57:33.565Z,1022.11
2016-08-23T01:57:43.554Z,1022.1
2016-08-23T01:57:53.548Z,1022.15
2016-08-23T01:58:03.538Z,1022.11
2016-08-23T01:58:13.533Z,1022.11
2016-08-23T01:58:23.529Z,1022.15
2016-08-23T01:58:33.523Z,1022.14
2016-08-23T01:58:43.526Z,1022.17
2016-08-23T01:58:53.516Z,1022.14
2016-08-23T01:59:03.510Z,1022.14
2016-08-23T01:59:13.505Z,1022.16
2016-08-23T01:59:23.499Z,1022.18
2016-08-23T01:59:33.500Z,1022.1
2016-08-23T01:59:43.491Z,1022.13
2016-08-23T01:59:53.486Z,1022.12
2016-08-23T02:00:03.480Z,1022.14
2016-08-23T02:00:13.476Z,1022.11
2016-08-23T02:00:23.471Z,1022.08
2016-08-23T02:00:33.470Z,1022.14
2016-08-23T02:00:43.463Z,1022.14
2016-08-23T02:00:53.461Z,1022.11
2016-08-23T02:01:03.455Z,1022.14
2016-08-23T02:01:13.447Z,1022.13
2016-08-23T02:01:24.171Z,1022.1